sensor_id;sensor_type;location;lat;lon;timestamp;P1;durP1;ratioP1;P2;durP2;ratioP2
70715;SDS011;59053;50.832;12.882;2023-06-24T00:01:19;16.00;;;8.97;;
70715;SDS011;59053;50.832;12.882;2023-06-24T00:03:44;17.30;;;8.80;;
70715;SDS011;59053;50.832;12.882;2023-06-24T00:06:12;14.83;;;8.63;;
70715;SDS011;59053;50.832;12.882;2023-06-24T00:08:46;17.13;;;8.85;;
70715;SDS011;59053;50.832;12.882;2023-06-24T00:11:12;15.93;;;8.23;;
70715;SDS011;59053;50.832;12.882;2023-06-24T00:13:41;21.23;;;8.07;;
70715;SDS011;59053;50.832;12.882;2023-06-24T00:16:07;14.18;;;7.57;;
70715;SDS011;59053;50.832;12.882;2023-06-24T00:18:34;15.83;;;7.73;;
70715;SDS011;59053;50.832;12.882;2023-06-24T00:21:00;15.43;;;7.43;;
70715;SDS011;59053;50.832;12.882;2023-06-24T00:23:26;13.93;;;7.47;;
70715;SDS011;59053;50.832;12.882;2023-06-24T00:25:53;14.52;;;7.63;;
70715;SDS011;59053;50.832;12.882;2023-06-24T00:28:19;15.55;;;7.55;;
70715;SDS011;59053;50.832;12.882;2023-06-24T00:30:44;15.43;;;7.50;;
70715;SDS011;59053;50.832;12.882;2023-06-24T00:33:10;17.40;;;7.50;;
70715;SDS011;59053;50.832;12.882;2023-06-24T00:35:38;18.83;;;8.05;;
70715;SDS011;59053;50.832;12.882;2023-06-24T00:38:05;16.33;;;7.80;;
70715;SDS011;59053;50.832;12.882;2023-06-24T00:40:32;14.57;;;7.55;;
70715;SDS011;59053;50.832;12.882;2023-06-24T00:42:58;14.53;;;7.43;;
70715;SDS011;59053;50.832;12.882;2023-06-24T00:45:24;16.10;;;7.85;;
70715;SDS011;59053;50.832;12.882;2023-06-24T00:47:50;12.53;;;7.60;;
70715;SDS011;59053;50.832;12.882;2023-06-24T00:50:16;18.60;;;8.48;;
70715;SDS011;59053;50.832;12.882;2023-06-24T00:52:42;14.10;;;7.85;;
70715;SDS011;59053;50.832;12.882;2023-06-24T00:55:08;16.03;;;8.27;;
70715;SDS011;59053;50.832;12.882;2023-06-24T00:57:37;18.38;;;7.88;;
70715;SDS011;59053;50.832;12.882;2023-06-24T01:00:02;19.60;;;8.63;;
70715;SDS011;59053;50.832;12.882;2023-06-24T01:02:33;15.02;;;7.97;;
70715;SDS011;59053;50.832;12.882;2023-06-24T01:05:03;14.48;;;8.25;;
70715;SDS011;59053;50.832;12.882;2023-06-24T01:07:33;17.38;;;7.70;;
70715;SDS011;59053;50.832;12.882;2023-06-24T01:10:02;19.30;;;8.52;;
70715;SDS011;59053;50.832;12.882;2023-06-24T01:12:34;13.57;;;7.90;;
70715;SDS011;59053;50.832;12.882;2023-06-24T01:15:05;19.17;;;8.13;;
70715;SDS011;59053;50.832;12.882;2023-06-24T01:20:29;16.67;;;7.65;;
70715;SDS011;59053;50.832;12.882;2023-06-24T01:31:34;17.42;;;8.55;;
70715;SDS011;59053;50.832;12.882;2023-06-24T01:36:43;15.13;;;8.63;;
70715;SDS011;59053;50.832;12.882;2023-06-24T01:39:12;17.37;;;8.20;;
70715;SDS011;59053;50.832;12.882;2023-06-24T01:41:48;16.73;;;8.60;;
70715;SDS011;59053;50.832;12.882;2023-06-24T01:44:17;15.20;;;7.80;;
70715;SDS011;59053;50.832;12.882;2023-06-24T01:46:44;18.37;;;8.60;;
70715;SDS011;59053;50.832;12.882;2023-06-24T01:49:12;14.23;;;8.18;;
70715;SDS011;59053;50.832;12.882;2023-06-24T01:51:38;20.00;;;9.63;;
70715;SDS011;59053;50.832;12.882;2023-06-24T01:54:07;20.98;;;8.93;;
70715;SDS011;59053;50.832;12.882;2023-06-24T01:56:35;16.27;;;8.43;;
70715;SDS011;59053;50.832;12.882;2023-06-24T01:59:03;16.53;;;8.73;;
70715;SDS011;59053;50.832;12.882;2023-06-24T02:01:31;19.27;;;9.50;;
70715;SDS011;59053;50.832;12.882;2023-06-24T02:03:57;17.08;;;9.20;;
70715;SDS011;59053;50.832;12.882;2023-06-24T02:06:25;19.98;;;8.90;;
70715;SDS011;59053;50.832;12.882;2023-06-24T02:08:51;17.23;;;8.80;;
70715;SDS011;59053;50.832;12.882;2023-06-24T02:11:21;17.77;;;9.13;;
70715;SDS011;59053;50.832;12.882;2023-06-24T02:13:49;16.35;;;8.73;;
70715;SDS011;59053;50.832;12.882;2023-06-24T02:16:16;17.60;;;9.15;;
70715;SDS011;59053;50.832;12.882;2023-06-24T02:18:41;15.88;;;9.23;;
70715;SDS011;59053;50.832;12.882;2023-06-24T02:21:08;17.58;;;9.45;;
70715;SDS011;59053;50.832;12.882;2023-06-24T02:23:35;16.23;;;9.10;;
70715;SDS011;59053;50.832;12.882;2023-06-24T02:26:03;17.52;;;9.10;;
70715;SDS011;59053;50.832;12.882;2023-06-24T02:28:31;18.80;;;10.00;;
70715;SDS011;59053;50.832;12.882;2023-06-24T02:30:58;19.30;;;9.25;;
70715;SDS011;59053;50.832;12.882;2023-06-24T02:33:23;19.43;;;9.30;;
70715;SDS011;59053;50.832;12.882;2023-06-24T02:35:49;18.95;;;9.52;;
70715;SDS011;59053;50.832;12.882;2023-06-24T02:38:14;18.03;;;8.97;;
70715;SDS011;59053;50.832;12.882;2023-06-24T02:40:40;20.03;;;9.20;;
70715;SDS011;59053;50.832;12.882;2023-06-24T02:43:08;18.77;;;9.63;;
70715;SDS011;59053;50.832;12.882;2023-06-24T02:45:35;17.92;;;9.40;;
70715;SDS011;59053;50.832;12.882;2023-06-24T02:48:00;19.47;;;9.60;;
70715;SDS011;59053;50.832;12.882;2023-06-24T02:50:27;20.88;;;9.35;;
70715;SDS011;59053;50.832;12.882;2023-06-24T02:52:53;21.30;;;9.60;;
70715;SDS011;59053;50.832;12.882;2023-06-24T02:55:21;17.60;;;9.93;;
70715;SDS011;59053;50.832;12.882;2023-06-24T02:57:51;16.65;;;9.32;;
70715;SDS011;59053;50.832;12.882;2023-06-24T03:00:39;18.00;;;8.95;;
70715;SDS011;59053;50.832;12.882;2023-06-24T03:03:07;21.00;;;9.30;;
70715;SDS011;59053;50.832;12.882;2023-06-24T03:05:34;19.67;;;9.18;;
70715;SDS011;59053;50.832;12.882;2023-06-24T03:08:00;21.33;;;9.87;;
70715;SDS011;59053;50.832;12.882;2023-06-24T03:10:29;19.58;;;9.68;;
70715;SDS011;59053;50.832;12.882;2023-06-24T03:12:56;25.00;;;10.27;;
70715;SDS011;59053;50.832;12.882;2023-06-24T03:15:28;22.55;;;10.30;;
70715;SDS011;59053;50.832;12.882;2023-06-24T03:17:54;22.13;;;10.20;;
70715;SDS011;59053;50.832;12.882;2023-06-24T03:20:20;20.90;;;9.93;;
70715;SDS011;59053;50.832;12.882;2023-06-24T03:22:46;22.30;;;9.50;;
70715;SDS011;59053;50.832;12.882;2023-06-24T03:25:13;20.60;;;9.67;;
70715;SDS011;59053;50.832;12.882;2023-06-24T03:27:39;20.45;;;10.23;;
70715;SDS011;59053;50.832;12.882;2023-06-24T03:30:04;18.63;;;9.83;;
70715;SDS011;59053;50.832;12.882;2023-06-24T03:32:33;18.42;;;9.75;;
70715;SDS011;59053;50.832;12.882;2023-06-24T03:35:00;19.53;;;10.47;;
70715;SDS011;59053;50.832;12.882;2023-06-24T03:37:26;20.67;;;10.35;;
70715;SDS011;59053;50.832;12.882;2023-06-24T03:39:52;18.83;;;10.18;;
70715;SDS011;59053;50.832;12.882;2023-06-24T03:42:19;19.27;;;10.00;;
70715;SDS011;59053;50.832;12.882;2023-06-24T03:44:45;17.63;;;9.57;;
70715;SDS011;59053;50.832;12.882;2023-06-24T03:47:10;18.93;;;9.80;;
70715;SDS011;59053;50.832;12.882;2023-06-24T03:49:35;21.33;;;10.50;;
70715;SDS011;59053;50.832;12.882;2023-06-24T03:52:01;22.67;;;11.33;;
70715;SDS011;59053;50.832;12.882;2023-06-24T03:54:26;21.35;;;10.52;;
70715;SDS011;59053;50.832;12.882;2023-06-24T03:56:51;19.53;;;10.23;;
70715;SDS011;59053;50.832;12.882;2023-06-24T03:59:17;18.73;;;9.80;;
70715;SDS011;59053;50.832;12.882;2023-06-24T04:01:43;20.60;;;9.90;;
70715;SDS011;59053;50.832;12.882;2023-06-24T04:04:08;19.20;;;10.48;;
70715;SDS011;59053;50.832;12.882;2023-06-24T04:06:33;19.37;;;9.97;;
70715;SDS011;59053;50.832;12.882;2023-06-24T04:08:59;19.93;;;10.00;;
70715;SDS011;59053;50.832;12.882;2023-06-24T04:11:24;18.03;;;10.07;;
70715;SDS011;59053;50.832;12.882;2023-06-24T04:13:49;19.63;;;10.30;;
70715;SDS011;59053;50.832;12.882;2023-06-24T04:16:15;23.73;;;10.75;;
70715;SDS011;59053;50.832;12.882;2023-06-24T04:18:41;22.23;;;11.27;;
70715;SDS011;59053;50.832;12.882;2023-06-24T04:21:06;19.77;;;10.65;;
70715;SDS011;59053;50.832;12.882;2023-06-24T04:23:33;26.10;;;11.25;;
70715;SDS011;59053;50.832;12.882;2023-06-24T04:25:58;22.03;;;11.50;;
70715;SDS011;59053;50.832;12.882;2023-06-24T04:28:23;22.60;;;12.20;;
70715;SDS011;59053;50.832;12.882;2023-06-24T04:30:49;30.57;;;13.87;;
70715;SDS011;59053;50.832;12.882;2023-06-24T04:33:14;31.42;;;14.25;;
70715;SDS011;59053;50.832;12.882;2023-06-24T04:35:40;27.17;;;13.33;;
70715;SDS011;59053;50.832;12.882;2023-06-24T04:38:05;29.47;;;13.67;;
70715;SDS011;59053;50.832;12.882;2023-06-24T04:40:31;25.73;;;11.95;;
70715;SDS011;59053;50.832;12.882;2023-06-24T04:42:57;26.17;;;13.67;;
70715;SDS011;59053;50.832;12.882;2023-06-24T04:45:22;29.00;;;14.93;;
70715;SDS011;59053;50.832;12.882;2023-06-24T04:47:47;27.50;;;13.77;;
70715;SDS011;59053;50.832;12.882;2023-06-24T04:50:13;27.85;;;15.10;;
70715;SDS011;59053;50.832;12.882;2023-06-24T04:52:39;30.93;;;14.00;;
70715;SDS011;59053;50.832;12.882;2023-06-24T04:55:04;26.25;;;13.95;;
70715;SDS011;59053;50.832;12.882;2023-06-24T04:57:31;25.27;;;14.10;;
70715;SDS011;59053;50.832;12.882;2023-06-24T04:59:57;28.27;;;13.90;;
70715;SDS011;59053;50.832;12.882;2023-06-24T05:02:23;24.17;;;13.27;;
70715;SDS011;59053;50.832;12.882;2023-06-24T05:04:49;24.48;;;13.05;;
70715;SDS011;59053;50.832;12.882;2023-06-24T05:07:16;27.60;;;12.67;;
70715;SDS011;59053;50.832;12.882;2023-06-24T05:09:41;25.95;;;13.05;;
70715;SDS011;59053;50.832;12.882;2023-06-24T05:12:08;26.37;;;13.97;;
70715;SDS011;59053;50.832;12.882;2023-06-24T05:14:34;24.15;;;12.23;;
70715;SDS011;59053;50.832;12.882;2023-06-24T05:16:59;25.63;;;13.07;;
70715;SDS011;59053;50.832;12.882;2023-06-24T05:19:25;24.00;;;11.90;;
70715;SDS011;59053;50.832;12.882;2023-06-24T05:21:50;25.73;;;12.73;;
70715;SDS011;59053;50.832;12.882;2023-06-24T05:24:16;32.13;;;13.33;;
70715;SDS011;59053;50.832;12.882;2023-06-24T05:26:41;23.97;;;12.33;;
70715;SDS011;59053;50.832;12.882;2023-06-24T05:29:06;22.93;;;11.67;;
70715;SDS011;59053;50.832;12.882;2023-06-24T05:31:32;25.15;;;12.55;;
70715;SDS011;59053;50.832;12.882;2023-06-24T05:33:57;28.07;;;12.00;;
70715;SDS011;59053;50.832;12.882;2023-06-24T05:36:22;21.33;;;11.10;;
70715;SDS011;59053;50.832;12.882;2023-06-24T05:38:48;25.80;;;11.43;;
70715;SDS011;59053;50.832;12.882;2023-06-24T05:41:14;21.50;;;10.87;;
70715;SDS011;59053;50.832;12.882;2023-06-24T05:43:39;20.90;;;10.48;;
70715;SDS011;59053;50.832;12.882;2023-06-24T05:46:04;18.83;;;10.17;;
70715;SDS011;59053;50.832;12.882;2023-06-24T05:48:30;21.57;;;9.70;;
70715;SDS011;59053;50.832;12.882;2023-06-24T05:50:55;18.40;;;10.18;;
70715;SDS011;59053;50.832;12.882;2023-06-24T05:53:30;19.60;;;10.00;;
70715;SDS011;59053;50.832;12.882;2023-06-24T05:55:55;21.23;;;10.27;;
70715;SDS011;59053;50.832;12.882;2023-06-24T05:58:21;19.90;;;10.20;;
70715;SDS011;59053;50.832;12.882;2023-06-24T06:00:46;21.33;;;10.10;;
70715;SDS011;59053;50.832;12.882;2023-06-24T06:03:11;20.47;;;10.37;;
70715;SDS011;59053;50.832;12.882;2023-06-24T06:05:37;20.67;;;10.10;;
70715;SDS011;59053;50.832;12.882;2023-06-24T06:08:02;20.37;;;9.80;;
70715;SDS011;59053;50.832;12.882;2023-06-24T06:10:28;23.60;;;11.03;;
70715;SDS011;59053;50.832;12.882;2023-06-24T06:12:53;19.77;;;10.60;;
70715;SDS011;59053;50.832;12.882;2023-06-24T06:15:19;22.73;;;11.33;;
70715;SDS011;59053;50.832;12.882;2023-06-24T06:17:45;20.65;;;10.38;;
70715;SDS011;59053;50.832;12.882;2023-06-24T06:20:11;21.40;;;11.00;;
70715;SDS011;59053;50.832;12.882;2023-06-24T06:22:36;23.13;;;11.33;;
70715;SDS011;59053;50.832;12.882;2023-06-24T06:25:04;21.95;;;10.73;;
70715;SDS011;59053;50.832;12.882;2023-06-24T06:27:30;21.02;;;11.43;;
70715;SDS011;59053;50.832;12.882;2023-06-24T06:29:55;21.53;;;10.60;;
70715;SDS011;59053;50.832;12.882;2023-06-24T06:32:20;18.90;;;8.90;;
70715;SDS011;59053;50.832;12.882;2023-06-24T06:34:46;20.83;;;10.53;;
70715;SDS011;59053;50.832;12.882;2023-06-24T06:37:11;17.50;;;9.82;;
70715;SDS011;59053;50.832;12.882;2023-06-24T06:39:37;19.47;;;9.23;;
70715;SDS011;59053;50.832;12.882;2023-06-24T06:42:02;15.10;;;7.47;;
70715;SDS011;59053;50.832;12.882;2023-06-24T06:44:27;17.37;;;8.73;;
70715;SDS011;59053;50.832;12.882;2023-06-24T06:46:53;16.97;;;9.50;;
70715;SDS011;59053;50.832;12.882;2023-06-24T06:49:18;18.93;;;9.90;;
70715;SDS011;59053;50.832;12.882;2023-06-24T06:51:43;14.43;;;8.67;;
70715;SDS011;59053;50.832;12.882;2023-06-24T06:54:09;14.57;;;7.87;;
70715;SDS011;59053;50.832;12.882;2023-06-24T06:56:34;14.50;;;8.07;;
70715;SDS011;59053;50.832;12.882;2023-06-24T06:58:59;17.20;;;7.50;;
70715;SDS011;59053;50.832;12.882;2023-06-24T07:01:25;13.70;;;7.20;;
70715;SDS011;59053;50.832;12.882;2023-06-24T07:03:50;12.70;;;7.72;;
70715;SDS011;59053;50.832;12.882;2023-06-24T07:06:17;14.03;;;7.97;;
70715;SDS011;59053;50.832;12.882;2023-06-24T07:08:43;14.70;;;7.57;;
70715;SDS011;59053;50.832;12.882;2023-06-24T07:11:09;14.30;;;7.80;;
70715;SDS011;59053;50.832;12.882;2023-06-24T07:13:34;12.93;;;7.87;;
70715;SDS011;59053;50.832;12.882;2023-06-24T07:15:59;17.43;;;8.47;;
70715;SDS011;59053;50.832;12.882;2023-06-24T07:18:25;15.90;;;8.13;;
70715;SDS011;59053;50.832;12.882;2023-06-24T07:20:55;16.80;;;8.10;;
70715;SDS011;59053;50.832;12.882;2023-06-24T07:23:21;18.17;;;9.20;;
70715;SDS011;59053;50.832;12.882;2023-06-24T07:25:46;15.25;;;9.10;;
70715;SDS011;59053;50.832;12.882;2023-06-24T07:28:12;13.90;;;9.17;;
70715;SDS011;59053;50.832;12.882;2023-06-24T07:30:38;14.60;;;8.82;;
70715;SDS011;59053;50.832;12.882;2023-06-24T07:33:03;14.37;;;8.93;;
70715;SDS011;59053;50.832;12.882;2023-06-24T07:35:31;13.45;;;8.13;;
70715;SDS011;59053;50.832;12.882;2023-06-24T07:37:57;13.27;;;8.10;;
70715;SDS011;59053;50.832;12.882;2023-06-24T07:40:22;11.63;;;6.57;;
70715;SDS011;59053;50.832;12.882;2023-06-24T07:42:48;11.70;;;6.40;;
70715;SDS011;59053;50.832;12.882;2023-06-24T07:45:13;13.40;;;6.47;;
70715;SDS011;59053;50.832;12.882;2023-06-24T07:47:38;10.53;;;5.20;;
70715;SDS011;59053;50.832;12.882;2023-06-24T07:50:05;10.60;;;5.50;;
70715;SDS011;59053;50.832;12.882;2023-06-24T07:52:31;9.43;;;5.85;;
70715;SDS011;59053;50.832;12.882;2023-06-24T07:54:57;9.63;;;6.10;;
70715;SDS011;59053;50.832;12.882;2023-06-24T07:57:31;11.05;;;6.07;;
70715;SDS011;59053;50.832;12.882;2023-06-24T07:59:56;12.20;;;6.47;;
70715;SDS011;59053;50.832;12.882;2023-06-24T08:02:21;10.32;;;6.30;;
70715;SDS011;59053;50.832;12.882;2023-06-24T08:04:49;12.77;;;6.80;;
70715;SDS011;59053;50.832;12.882;2023-06-24T08:07:14;9.10;;;5.83;;
70715;SDS011;59053;50.832;12.882;2023-06-24T08:09:40;10.73;;;6.10;;
70715;SDS011;59053;50.832;12.882;2023-06-24T08:12:05;10.07;;;6.07;;
70715;SDS011;59053;50.832;12.882;2023-06-24T08:14:31;12.87;;;5.20;;
70715;SDS011;59053;50.832;12.882;2023-06-24T08:16:58;11.60;;;5.70;;
70715;SDS011;59053;50.832;12.882;2023-06-24T08:19:24;9.73;;;5.75;;
70715;SDS011;59053;50.832;12.882;2023-06-24T08:21:49;9.50;;;5.93;;
70715;SDS011;59053;50.832;12.882;2023-06-24T08:24:14;13.10;;;5.67;;
70715;SDS011;59053;50.832;12.882;2023-06-24T08:26:40;11.80;;;5.50;;
70715;SDS011;59053;50.832;12.882;2023-06-24T08:29:14;8.00;;;5.07;;
70715;SDS011;59053;50.832;12.882;2023-06-24T08:31:39;10.93;;;6.27;;
70715;SDS011;59053;50.832;12.882;2023-06-24T08:34:04;11.33;;;5.90;;
70715;SDS011;59053;50.832;12.882;2023-06-24T08:36:33;9.10;;;5.60;;
70715;SDS011;59053;50.832;12.882;2023-06-24T08:38:58;11.97;;;5.40;;
70715;SDS011;59053;50.832;12.882;2023-06-24T08:41:24;10.93;;;5.40;;
70715;SDS011;59053;50.832;12.882;2023-06-24T08:43:52;9.93;;;5.03;;
70715;SDS011;59053;50.832;12.882;2023-06-24T08:46:19;7.80;;;4.43;;
70715;SDS011;59053;50.832;12.882;2023-06-24T08:48:45;11.23;;;4.63;;
70715;SDS011;59053;50.832;12.882;2023-06-24T08:51:13;14.07;;;5.18;;
70715;SDS011;59053;50.832;12.882;2023-06-24T08:53:41;7.90;;;5.20;;
70715;SDS011;59053;50.832;12.882;2023-06-24T08:56:08;9.93;;;4.83;;
70715;SDS011;59053;50.832;12.882;2023-06-24T08:58:33;8.52;;;4.63;;
70715;SDS011;59053;50.832;12.882;2023-06-24T09:00:59;8.77;;;4.67;;
70715;SDS011;59053;50.832;12.882;2023-06-24T09:03:25;10.82;;;4.82;;
70715;SDS011;59053;50.832;12.882;2023-06-24T09:05:50;8.40;;;4.87;;
70715;SDS011;59053;50.832;12.882;2023-06-24T09:08:16;10.97;;;5.37;;
70715;SDS011;59053;50.832;12.882;2023-06-24T09:10:41;12.80;;;5.70;;
70715;SDS011;59053;50.832;12.882;2023-06-24T09:13:07;8.70;;;5.47;;
70715;SDS011;59053;50.832;12.882;2023-06-24T09:15:33;10.65;;;5.85;;
70715;SDS011;59053;50.832;12.882;2023-06-24T09:17:59;11.57;;;5.00;;
70715;SDS011;59053;50.832;12.882;2023-06-24T09:20:26;9.20;;;4.47;;
70715;SDS011;59053;50.832;12.882;2023-06-24T09:22:58;10.57;;;5.10;;
70715;SDS011;59053;50.832;12.882;2023-06-24T09:25:24;9.82;;;5.63;;
70715;SDS011;59053;50.832;12.882;2023-06-24T09:27:50;9.40;;;5.33;;
70715;SDS011;59053;50.832;12.882;2023-06-24T09:30:20;10.75;;;5.60;;
70715;SDS011;59053;50.832;12.882;2023-06-24T09:32:47;11.20;;;5.80;;
70715;SDS011;59053;50.832;12.882;2023-06-24T09:35:13;9.02;;;5.60;;
70715;SDS011;59053;50.832;12.882;2023-06-24T09:37:39;10.00;;;5.32;;
70715;SDS011;59053;50.832;12.882;2023-06-24T09:40:04;10.20;;;5.77;;
70715;SDS011;59053;50.832;12.882;2023-06-24T09:42:31;10.55;;;5.80;;
70715;SDS011;59053;50.832;12.882;2023-06-24T09:44:57;8.43;;;5.60;;
70715;SDS011;59053;50.832;12.882;2023-06-24T09:47:22;10.20;;;6.23;;
70715;SDS011;59053;50.832;12.882;2023-06-24T09:49:52;8.68;;;5.30;;
70715;SDS011;59053;50.832;12.882;2023-06-24T09:52:18;8.98;;;5.82;;
70715;SDS011;59053;50.832;12.882;2023-06-24T09:54:46;10.45;;;5.63;;
70715;SDS011;59053;50.832;12.882;2023-06-24T09:57:15;9.45;;;5.78;;
70715;SDS011;59053;50.832;12.882;2023-06-24T09:59:43;8.93;;;5.73;;
70715;SDS011;59053;50.832;12.882;2023-06-24T10:02:11;9.65;;;5.28;;
70715;SDS011;59053;50.832;12.882;2023-06-24T10:04:37;10.13;;;5.30;;
70715;SDS011;59053;50.832;12.882;2023-06-24T10:07:03;9.60;;;5.13;;
70715;SDS011;59053;50.832;12.882;2023-06-24T10:09:29;10.20;;;5.85;;
70715;SDS011;59053;50.832;12.882;2023-06-24T10:11:54;8.23;;;5.70;;
70715;SDS011;59053;50.832;12.882;2023-06-24T10:14:19;8.70;;;5.77;;
70715;SDS011;59053;50.832;12.882;2023-06-24T10:16:45;8.93;;;5.33;;
70715;SDS011;59053;50.832;12.882;2023-06-24T10:19:13;8.83;;;5.40;;
70715;SDS011;59053;50.832;12.882;2023-06-24T10:24:35;8.80;;;5.35;;
70715;SDS011;59053;50.832;12.882;2023-06-24T10:27:09;10.97;;;5.60;;
70715;SDS011;59053;50.832;12.882;2023-06-24T10:29:41;9.57;;;5.47;;
70715;SDS011;59053;50.832;12.882;2023-06-24T10:32:10;7.90;;;5.00;;
70715;SDS011;59053;50.832;12.882;2023-06-24T10:34:38;8.23;;;5.17;;
70715;SDS011;59053;50.832;12.882;2023-06-24T10:37:07;12.10;;;5.38;;
70715;SDS011;59053;50.832;12.882;2023-06-24T10:39:36;8.27;;;4.90;;
70715;SDS011;59053;50.832;12.882;2023-06-24T10:44:49;9.15;;;5.30;;
70715;SDS011;59053;50.832;12.882;2023-06-24T10:47:15;9.63;;;5.53;;
70715;SDS011;59053;50.832;12.882;2023-06-24T10:49:41;8.27;;;5.33;;
70715;SDS011;59053;50.832;12.882;2023-06-24T10:52:10;8.23;;;5.07;;
70715;SDS011;59053;50.832;12.882;2023-06-24T10:54:36;8.25;;;5.15;;
70715;SDS011;59053;50.832;12.882;2023-06-24T10:57:02;7.20;;;4.50;;
70715;SDS011;59053;50.832;12.882;2023-06-24T10:59:33;8.13;;;4.40;;
70715;SDS011;59053;50.832;12.882;2023-06-24T11:01:59;6.95;;;4.63;;
70715;SDS011;59053;50.832;12.882;2023-06-24T11:04:24;9.10;;;4.70;;
70715;SDS011;59053;50.832;12.882;2023-06-24T11:07:00;9.18;;;5.07;;
70715;SDS011;59053;50.832;12.882;2023-06-24T11:09:26;10.32;;;4.80;;
70715;SDS011;59053;50.832;12.882;2023-06-24T11:11:51;7.00;;;4.80;;
70715;SDS011;59053;50.832;12.882;2023-06-24T11:14:17;7.53;;;4.60;;
70715;SDS011;59053;50.832;12.882;2023-06-24T11:16:42;7.27;;;4.87;;
70715;SDS011;59053;50.832;12.882;2023-06-24T11:19:08;7.10;;;4.50;;
70715;SDS011;59053;50.832;12.882;2023-06-24T11:21:33;9.10;;;4.73;;
70715;SDS011;59053;50.832;12.882;2023-06-24T11:24:02;9.02;;;5.00;;
70715;SDS011;59053;50.832;12.882;2023-06-24T11:26:28;9.07;;;5.18;;
70715;SDS011;59053;50.832;12.882;2023-06-24T11:28:53;6.97;;;4.93;;
70715;SDS011;59053;50.832;12.882;2023-06-24T11:31:19;9.13;;;4.43;;
70715;SDS011;59053;50.832;12.882;2023-06-24T11:33:50;11.10;;;4.93;;
70715;SDS011;59053;50.832;12.882;2023-06-24T11:36:16;6.72;;;4.50;;
70715;SDS011;59053;50.832;12.882;2023-06-24T11:38:42;7.50;;;4.45;;
70715;SDS011;59053;50.832;12.882;2023-06-24T11:41:08;7.40;;;4.70;;
70715;SDS011;59053;50.832;12.882;2023-06-24T11:43:33;8.87;;;4.30;;
70715;SDS011;59053;50.832;12.882;2023-06-24T11:45:59;8.82;;;4.65;;
70715;SDS011;59053;50.832;12.882;2023-06-24T11:48:27;6.50;;;4.40;;
70715;SDS011;59053;50.832;12.882;2023-06-24T11:51:03;6.72;;;4.20;;
70715;SDS011;59053;50.832;12.882;2023-06-24T11:53:29;6.67;;;4.40;;
70715;SDS011;59053;50.832;12.882;2023-06-24T11:56:10;7.40;;;4.57;;
70715;SDS011;59053;50.832;12.882;2023-06-24T11:58:36;8.13;;;4.30;;
70715;SDS011;59053;50.832;12.882;2023-06-24T12:01:02;6.50;;;4.27;;
70715;SDS011;59053;50.832;12.882;2023-06-24T12:03:28;5.90;;;4.00;;
70715;SDS011;59053;50.832;12.882;2023-06-24T12:05:54;6.28;;;3.75;;
70715;SDS011;59053;50.832;12.882;2023-06-24T12:08:19;7.47;;;4.13;;
70715;SDS011;59053;50.832;12.882;2023-06-24T12:10:45;5.65;;;3.50;;
70715;SDS011;59053;50.832;12.882;2023-06-24T12:13:10;7.00;;;3.90;;
70715;SDS011;59053;50.832;12.882;2023-06-24T12:15:36;5.47;;;3.73;;
70715;SDS011;59053;50.832;12.882;2023-06-24T12:18:01;6.80;;;4.03;;
70715;SDS011;59053;50.832;12.882;2023-06-24T12:20:28;6.43;;;4.00;;
70715;SDS011;59053;50.832;12.882;2023-06-24T12:22:53;6.43;;;4.43;;
70715;SDS011;59053;50.832;12.882;2023-06-24T12:25:19;6.43;;;4.13;;
70715;SDS011;59053;50.832;12.882;2023-06-24T12:27:44;6.70;;;4.00;;
70715;SDS011;59053;50.832;12.882;2023-06-24T12:30:10;6.00;;;4.20;;
70715;SDS011;59053;50.832;12.882;2023-06-24T12:32:36;7.53;;;4.18;;
70715;SDS011;59053;50.832;12.882;2023-06-24T12:35:02;6.67;;;3.67;;
70715;SDS011;59053;50.832;12.882;2023-06-24T12:37:32;8.20;;;4.30;;
70715;SDS011;59053;50.832;12.882;2023-06-24T12:39:58;5.90;;;4.18;;
70715;SDS011;59053;50.832;12.882;2023-06-24T12:42:24;5.82;;;4.18;;
70715;SDS011;59053;50.832;12.882;2023-06-24T12:44:50;5.90;;;3.90;;
70715;SDS011;59053;50.832;12.882;2023-06-24T12:47:15;8.00;;;4.30;;
70715;SDS011;59053;50.832;12.882;2023-06-24T12:49:41;6.17;;;4.03;;
70715;SDS011;59053;50.832;12.882;2023-06-24T12:52:06;7.70;;;4.23;;
70715;SDS011;59053;50.832;12.882;2023-06-24T12:54:31;6.67;;;3.70;;
70715;SDS011;59053;50.832;12.882;2023-06-24T12:56:57;6.33;;;4.07;;
70715;SDS011;59053;50.832;12.882;2023-06-24T12:59:22;5.80;;;3.80;;
70715;SDS011;59053;50.832;12.882;2023-06-24T13:01:48;5.70;;;3.77;;
70715;SDS011;59053;50.832;12.882;2023-06-24T13:04:13;4.87;;;3.50;;
70715;SDS011;59053;50.832;12.882;2023-06-24T13:06:38;5.60;;;3.90;;
70715;SDS011;59053;50.832;12.882;2023-06-24T13:09:04;6.63;;;4.10;;
70715;SDS011;59053;50.832;12.882;2023-06-24T13:11:30;5.57;;;4.27;;
70715;SDS011;59053;50.832;12.882;2023-06-24T13:13:55;4.97;;;3.23;;
70715;SDS011;59053;50.832;12.882;2023-06-24T13:16:20;7.40;;;3.93;;
70715;SDS011;59053;50.832;12.882;2023-06-24T13:18:46;7.07;;;4.33;;
70715;SDS011;59053;50.832;12.882;2023-06-24T13:21:11;7.07;;;3.72;;
70715;SDS011;59053;50.832;12.882;2023-06-24T13:23:37;6.53;;;3.77;;
70715;SDS011;59053;50.832;12.882;2023-06-24T13:26:03;5.88;;;3.70;;
70715;SDS011;59053;50.832;12.882;2023-06-24T13:28:29;6.53;;;3.87;;
70715;SDS011;59053;50.832;12.882;2023-06-24T13:30:54;7.77;;;4.03;;
70715;SDS011;59053;50.832;12.882;2023-06-24T13:33:20;6.25;;;4.30;;
70715;SDS011;59053;50.832;12.882;2023-06-24T13:35:45;6.57;;;4.00;;
70715;SDS011;59053;50.832;12.882;2023-06-24T13:38:11;6.00;;;3.70;;
70715;SDS011;59053;50.832;12.882;2023-06-24T13:40:37;6.23;;;4.03;;
70715;SDS011;59053;50.832;12.882;2023-06-24T13:43:03;6.25;;;4.22;;
70715;SDS011;59053;50.832;12.882;2023-06-24T13:45:28;7.87;;;4.30;;
70715;SDS011;59053;50.832;12.882;2023-06-24T13:47:53;5.83;;;4.10;;
70715;SDS011;59053;50.832;12.882;2023-06-24T13:50:20;5.15;;;3.72;;
70715;SDS011;59053;50.832;12.882;2023-06-24T13:52:45;6.40;;;3.80;;
70715;SDS011;59053;50.832;12.882;2023-06-24T13:55:11;5.53;;;4.00;;
70715;SDS011;59053;50.832;12.882;2023-06-24T13:57:36;5.63;;;3.93;;
70715;SDS011;59053;50.832;12.882;2023-06-24T14:00:01;6.00;;;3.57;;
70715;SDS011;59053;50.832;12.882;2023-06-24T14:02:37;7.40;;;4.00;;
70715;SDS011;59053;50.832;12.882;2023-06-24T14:05:02;5.87;;;4.00;;
70715;SDS011;59053;50.832;12.882;2023-06-24T14:07:28;7.63;;;3.70;;
70715;SDS011;59053;50.832;12.882;2023-06-24T14:09:54;6.10;;;3.70;;
70715;SDS011;59053;50.832;12.882;2023-06-24T14:12:19;4.67;;;3.30;;
70715;SDS011;59053;50.832;12.882;2023-06-24T14:14:45;6.88;;;3.83;;
70715;SDS011;59053;50.832;12.882;2023-06-24T14:17:10;5.93;;;3.77;;
70715;SDS011;59053;50.832;12.882;2023-06-24T14:19:37;6.03;;;3.97;;
70715;SDS011;59053;50.832;12.882;2023-06-24T14:22:04;5.57;;;3.80;;
70715;SDS011;59053;50.832;12.882;2023-06-24T14:24:30;5.95;;;3.70;;
70715;SDS011;59053;50.832;12.882;2023-06-24T14:26:55;6.20;;;3.93;;
70715;SDS011;59053;50.832;12.882;2023-06-24T14:29:21;6.22;;;3.63;;
70715;SDS011;59053;50.832;12.882;2023-06-24T14:31:46;6.50;;;3.77;;
70715;SDS011;59053;50.832;12.882;2023-06-24T14:34:12;5.33;;;3.67;;
70715;SDS011;59053;50.832;12.882;2023-06-24T14:36:37;5.53;;;3.80;;
70715;SDS011;59053;50.832;12.882;2023-06-24T14:39:02;4.97;;;3.60;;